sensor_id;sensor_type;location;lat;lon;timestamp;pressure;altitude;pressure_sealevel;temperature;humidity
40994;BME280;26722;43.212;27.932;2023-08-24T00:01:26;54883.84;;;-146.72;60.40
40994;BME280;26722;43.212;27.932;2023-08-24T00:03:51;54877.53;;;-146.72;59.73
40994;BME280;26722;43.212;27.932;2023-08-24T00:06:17;54879.63;;;-146.72;60.31
40994;BME280;26722;43.212;27.932;2023-08-24T00:08:43;54871.19;;;-146.72;60.22
40994;BME280;26722;43.212;27.932;2023-08-24T00:11:09;54888.09;;;-146.72;60.52
40994;BME280;26722;43.212;27.932;2023-08-24T00:13:42;54883.84;;;-146.72;61.12
40994;BME280;26722;43.212;27.932;2023-08-24T00:16:19;54883.84;;;-146.72;61.38
40994;BME280;26722;43.212;27.932;2023-08-24T00:18:45;54888.09;;;-146.72;61.82
40994;BME280;26722;43.212;27.932;2023-08-24T00:21:13;54894.41;;;-146.72;62.59
40994;BME280;26722;43.212;27.932;2023-08-24T00:23:42;54885.97;;;-146.72;62.63
40994;BME280;26722;43.212;27.932;2023-08-24T00:26:08;54890.19;;;-146.72;62.90
40994;BME280;26722;43.212;27.932;2023-08-24T00:28:34;54894.41;;;-146.72;63.01
40994;BME280;26722;43.212;27.932;2023-08-24T00:31:00;54900.75;;;-146.72;62.54
40994;BME280;26722;43.212;27.932;2023-08-24T00:33:25;54894.41;;;-146.72;61.66
40994;BME280;26722;43.212;27.932;2023-08-24T00:35:51;54885.97;;;-146.72;61.73
40994;BME280;26722;43.212;27.932;2023-08-24T00:38:16;54877.53;;;-146.72;61.01
40994;BME280;26722;43.212;27.932;2023-08-24T00:40:42;54888.09;;;-146.72;61.03
40994;BME280;26722;43.212;27.932;2023-08-24T00:43:09;54892.31;;;-146.72;60.65
40994;BME280;26722;43.212;27.932;2023-08-24T00:45:34;54896.53;;;-146.72;61.29
40994;BME280;26722;43.212;27.932;2023-08-24T00:48:01;54890.19;;;-146.72;61.68
40994;BME280;26722;43.212;27.932;2023-08-24T00:50:27;54890.19;;;-146.72;61.31
40994;BME280;26722;43.212;27.932;2023-08-24T00:52:53;54881.75;;;-146.72;61.59
40994;BME280;26722;43.212;27.932;2023-08-24T00:55:20;54890.19;;;-146.72;60.94
40994;BME280;26722;43.212;27.932;2023-08-24T00:57:46;54894.41;;;-146.72;60.10
40994;BME280;26722;43.212;27.932;2023-08-24T01:00:13;54892.31;;;-146.72;59.71
40994;BME280;26722;43.212;27.932;2023-08-24T01:02:39;54892.31;;;-146.72;59.73
40994;BME280;26722;43.212;27.932;2023-08-24T01:05:04;54890.19;;;-146.72;59.70
40994;BME280;26722;43.212;27.932;2023-08-24T01:07:31;54888.09;;;-146.72;60.41
40994;BME280;26722;43.212;27.932;2023-08-24T01:09:57;54866.97;;;-146.72;60.60
40994;BME280;26722;43.212;27.932;2023-08-24T01:18:20;54885.97;;;-146.72;60.73
40994;BME280;26722;43.212;27.932;2023-08-24T01:20:47;54875.41;;;-146.72;61.46
40994;BME280;26722;43.212;27.932;2023-08-24T01:28:12;54907.09;;;-146.72;63.73
40994;BME280;26722;43.212;27.932;2023-08-24T01:30:38;54896.53;;;-146.72;63.76
40994;BME280;26722;43.212;27.932;2023-08-24T01:33:04;54894.41;;;-146.72;64.97
40994;BME280;26722;43.212;27.932;2023-08-24T01:35:30;54892.31;;;-146.72;65.97
40994;BME280;26722;43.212;27.932;2023-08-24T01:37:56;54892.31;;;-146.72;66.95
40994;BME280;26722;43.212;27.932;2023-08-24T01:40:28;54898.63;;;-146.72;68.07
40994;BME280;26722;43.212;27.932;2023-08-24T01:43:05;54904.97;;;-146.72;69.16
40994;BME280;26722;43.212;27.932;2023-08-24T01:45:32;54913.41;;;-146.72;69.79
40994;BME280;26722;43.212;27.932;2023-08-24T01:48:03;54900.75;;;-146.72;69.88
40994;BME280;26722;43.212;27.932;2023-08-24T01:50:29;54913.41;;;-146.72;68.91
40994;BME280;26722;43.212;27.932;2023-08-24T01:52:56;54907.09;;;-146.72;68.29
40994;BME280;26722;43.212;27.932;2023-08-24T01:55:22;54904.97;;;-146.72;67.77
40994;BME280;26722;43.212;27.932;2023-08-24T01:57:48;54896.53;;;-146.72;67.11
40994;BME280;26722;43.212;27.932;2023-08-24T02:00:14;54896.53;;;-146.72;66.84
40994;BME280;26722;43.212;27.932;2023-08-24T02:02:43;54898.63;;;-146.72;66.43
40994;BME280;26722;43.212;27.932;2023-08-24T02:05:09;54900.75;;;-146.72;66.38
40994;BME280;26722;43.212;27.932;2023-08-24T02:07:34;54909.19;;;-146.72;66.21
40994;BME280;26722;43.212;27.932;2023-08-24T02:10:00;54888.09;;;-146.72;65.73
40994;BME280;26722;43.212;27.932;2023-08-24T02:12:25;54909.19;;;-146.72;65.11
40994;BME280;26722;43.212;27.932;2023-08-24T02:14:52;54896.53;;;-146.72;65.15
40994;BME280;26722;43.212;27.932;2023-08-24T02:17:17;54898.63;;;-146.72;65.32
40994;BME280;26722;43.212;27.932;2023-08-24T02:19:43;54902.84;;;-146.72;65.02
40994;BME280;26722;43.212;27.932;2023-08-24T02:22:09;54898.63;;;-146.72;65.40
40994;BME280;26722;43.212;27.932;2023-08-24T02:24:34;54900.75;;;-146.72;65.28
40994;BME280;26722;43.212;27.932;2023-08-24T02:27:00;54896.53;;;-146.72;66.69
40994;BME280;26722;43.212;27.932;2023-08-24T02:29:26;54896.53;;;-146.72;66.21
40994;BME280;26722;43.212;27.932;2023-08-24T02:31:53;54911.31;;;-146.72;66.65
40994;BME280;26722;43.212;27.932;2023-08-24T02:34:18;54898.63;;;-146.72;66.32
40994;BME280;26722;43.212;27.932;2023-08-24T02:36:44;54900.75;;;-146.72;66.45
40994;BME280;26722;43.212;27.932;2023-08-24T02:39:09;54894.41;;;-146.72;66.69
40994;BME280;26722;43.212;27.932;2023-08-24T02:41:35;54892.31;;;-146.72;66.92
40994;BME280;26722;43.212;27.932;2023-08-24T02:44:01;54892.31;;;-146.72;68.51
40994;BME280;26722;43.212;27.932;2023-08-24T02:46:27;54896.53;;;-146.72;69.66
40994;BME280;26722;43.212;27.932;2023-08-24T02:48:52;54917.63;;;-146.72;69.78
40994;BME280;26722;43.212;27.932;2023-08-24T02:51:21;54900.75;;;-146.72;69.24
40994;BME280;26722;43.212;27.932;2023-08-24T02:53:47;54885.97;;;-146.72;71.95
40994;BME280;26722;43.212;27.932;2023-08-24T02:56:12;54896.53;;;-146.72;74.20
40994;BME280;26722;43.212;27.932;2023-08-24T02:58:37;54909.19;;;-146.72;75.20
40994;BME280;26722;43.212;27.932;2023-08-24T03:01:06;54900.75;;;-146.72;77.39
40994;BME280;26722;43.212;27.932;2023-08-24T03:03:35;54888.09;;;-146.72;80.98
40994;BME280;26722;43.212;27.932;2023-08-24T03:06:03;54885.97;;;-146.72;86.69
40994;BME280;26722;43.212;27.932;2023-08-24T03:08:30;54890.19;;;-146.72;89.49
40994;BME280;26722;43.212;27.932;2023-08-24T03:10:56;54866.97;;;-146.72;89.69
40994;BME280;26722;43.212;27.932;2023-08-24T03:13:22;54879.63;;;-146.72;91.71
40994;BME280;26722;43.212;27.932;2023-08-24T03:15:48;54890.19;;;-146.72;89.17
40994;BME280;26722;43.212;27.932;2023-08-24T03:18:16;54885.97;;;-146.72;88.66
40994;BME280;26722;43.212;27.932;2023-08-24T03:20:43;54890.19;;;-146.72;85.69
40994;BME280;26722;43.212;27.932;2023-08-24T03:23:08;54890.19;;;-146.72;86.34
40994;BME280;26722;43.212;27.932;2023-08-24T03:25:39;54888.09;;;-146.72;85.73
40994;BME280;26722;43.212;27.932;2023-08-24T03:28:05;54892.31;;;-146.72;84.72
40994;BME280;26722;43.212;27.932;2023-08-24T03:30:33;54883.84;;;-146.72;83.43
40994;BME280;26722;43.212;27.932;2023-08-24T03:32:59;54883.84;;;-146.72;81.96
40994;BME280;26722;43.212;27.932;2023-08-24T03:35:24;54885.97;;;-146.72;80.83
40994;BME280;26722;43.212;27.932;2023-08-24T03:37:50;54896.53;;;-146.72;81.21
40994;BME280;26722;43.212;27.932;2023-08-24T03:40:16;54892.31;;;-146.72;82.35
40994;BME280;26722;43.212;27.932;2023-08-24T03:42:41;54881.75;;;-146.72;82.64
40994;BME280;26722;43.212;27.932;2023-08-24T03:45:07;54875.41;;;-146.72;82.01
40994;BME280;26722;43.212;27.932;2023-08-24T03:47:33;54881.75;;;-146.72;81.48
40994;BME280;26722;43.212;27.932;2023-08-24T03:49:59;54883.84;;;-146.72;81.48
40994;BME280;26722;43.212;27.932;2023-08-24T03:52:25;54871.19;;;-146.72;81.13
40994;BME280;26722;43.212;27.932;2023-08-24T03:54:50;54879.63;;;-146.72;79.70
40994;BME280;26722;43.212;27.932;2023-08-24T03:57:16;54879.63;;;-146.72;79.09
40994;BME280;26722;43.212;27.932;2023-08-24T03:59:42;54862.75;;;-146.72;78.57
40994;BME280;26722;43.212;27.932;2023-08-24T04:02:07;54883.84;;;-146.72;78.86
40994;BME280;26722;43.212;27.932;2023-08-24T04:04:33;54875.41;;;-146.72;79.17
40994;BME280;26722;43.212;27.932;2023-08-24T04:06:58;54869.09;;;-146.72;77.79
40994;BME280;26722;43.212;27.932;2023-08-24T04:09:24;54875.41;;;-146.72;76.03
40994;BME280;26722;43.212;27.932;2023-08-24T04:11:49;54854.31;;;-146.72;74.19
40994;BME280;26722;43.212;27.932;2023-08-24T04:14:15;54883.84;;;-146.72;72.86
40994;BME280;26722;43.212;27.932;2023-08-24T04:16:40;54850.09;;;-146.72;71.82
40994;BME280;26722;43.212;27.932;2023-08-24T04:19:07;54845.88;;;-146.72;70.38
40994;BME280;26722;43.212;27.932;2023-08-24T04:21:33;54841.63;;;-146.72;69.48
40994;BME280;26722;43.212;27.932;2023-08-24T04:23:59;54845.88;;;-146.72;69.12
40994;BME280;26722;43.212;27.932;2023-08-24T04:26:24;54824.75;;;-146.72;68.24
40994;BME280;26722;43.212;27.932;2023-08-24T04:28:50;54828.97;;;-146.72;68.02
40994;BME280;26722;43.212;27.932;2023-08-24T04:31:15;54833.19;;;-146.72;68.60
40994;BME280;26722;43.212;27.932;2023-08-24T04:33:41;54833.19;;;-146.72;68.34
40994;BME280;26722;43.212;27.932;2023-08-24T04:36:07;54833.19;;;-146.72;68.65
40994;BME280;26722;43.212;27.932;2023-08-24T04:38:32;54833.19;;;-146.72;68.75
40994;BME280;26722;43.212;27.932;2023-08-24T04:40:58;54833.19;;;-146.72;68.93
40994;BME280;26722;43.212;27.932;2023-08-24T04:43:24;54828.97;;;-146.72;69.07
40994;BME280;26722;43.212;27.932;2023-08-24T04:45:51;54833.19;;;-146.72;69.71
40994;BME280;26722;43.212;27.932;2023-08-24T04:48:19;54833.19;;;-146.72;69.70
40994;BME280;26722;43.212;27.932;2023-08-24T04:50:45;54828.97;;;-146.72;69.49
40994;BME280;26722;43.212;27.932;2023-08-24T04:53:15;54841.63;;;-146.72;70.39
40994;BME280;26722;43.212;27.932;2023-08-24T04:55:41;54828.97;;;-146.72;70.81
40994;BME280;26722;43.212;27.932;2023-08-24T04:58:08;54841.63;;;-146.72;70.79
40994;BME280;26722;43.212;27.932;2023-08-24T05:00:34;54845.88;;;-146.72;70.74
40994;BME280;26722;43.212;27.932;2023-08-24T05:03:01;54826.88;;;-146.72;70.47
40994;BME280;26722;43.212;27.932;2023-08-24T05:05:29;54824.75;;;-146.72;70.13
40994;BME280;26722;43.212;27.932;2023-08-24T05:07:55;54839.53;;;-146.72;70.36
40994;BME280;26722;43.212;27.932;2023-08-24T05:10:20;54835.31;;;-146.72;69.90
40994;BME280;26722;43.212;27.932;2023-08-24T05:12:46;54828.97;;;-146.72;69.72
40994;BME280;26722;43.212;27.932;2023-08-24T05:15:11;54816.31;;;-146.72;69.69
40994;BME280;26722;43.212;27.932;2023-08-24T05:17:39;54828.97;;;-146.72;70.20
40994;BME280;26722;43.212;27.932;2023-08-24T05:20:05;54826.88;;;-146.72;70.31
40994;BME280;26722;43.212;27.932;2023-08-24T05:22:30;54826.88;;;-146.72;69.55
40994;BME280;26722;43.212;27.932;2023-08-24T05:24:56;54843.75;;;-146.72;69.61
40994;BME280;26722;43.212;27.932;2023-08-24T05:27:21;54826.88;;;-146.72;69.74
40994;BME280;26722;43.212;27.932;2023-08-24T05:29:47;54824.75;;;-146.72;69.63
40994;BME280;26722;43.212;27.932;2023-08-24T05:32:12;54828.97;;;-146.72;69.27
40994;BME280;26722;43.212;27.932;2023-08-24T05:34:38;54812.09;;;-146.72;68.97
40994;BME280;26722;43.212;27.932;2023-08-24T05:37:03;54822.63;;;-146.72;68.74
40994;BME280;26722;43.212;27.932;2023-08-24T05:39:29;54820.53;;;-146.72;68.91
40994;BME280;26722;43.212;27.932;2023-08-24T05:41:54;54816.31;;;-146.72;69.43
40994;BME280;26722;43.212;27.932;2023-08-24T05:44:20;54828.97;;;-146.72;69.09
40994;BME280;26722;43.212;27.932;2023-08-24T05:46:46;54820.53;;;-146.72;67.86
40994;BME280;26722;43.212;27.932;2023-08-24T05:49:13;54812.09;;;-146.72;66.38
40994;BME280;26722;43.212;27.932;2023-08-24T05:51:38;54828.97;;;-146.72;63.81
40994;BME280;26722;43.212;27.932;2023-08-24T05:54:04;54820.53;;;-146.72;63.92
40994;BME280;26722;43.212;27.932;2023-08-24T05:56:30;54824.75;;;-146.72;65.01
40994;BME280;26722;43.212;27.932;2023-08-24T05:58:57;54812.09;;;-146.72;63.22
40994;BME280;26722;43.212;27.932;2023-08-24T06:01:23;54816.31;;;-146.72;62.62
40994;BME280;26722;43.212;27.932;2023-08-24T06:03:49;54805.75;;;-146.72;62.72
40994;BME280;26722;43.212;27.932;2023-08-24T06:06:15;54807.88;;;-146.72;62.21
40994;BME280;26722;43.212;27.932;2023-08-24T06:08:41;54809.97;;;-146.72;64.16
40994;BME280;26722;43.212;27.932;2023-08-24T06:11:07;54812.09;;;-146.72;65.86
40994;BME280;26722;43.212;27.932;2023-08-24T06:13:32;54807.88;;;-146.72;67.77
40994;BME280;26722;43.212;27.932;2023-08-24T06:15:58;54818.41;;;-146.72;69.32
40994;BME280;26722;43.212;27.932;2023-08-24T06:18:24;54809.97;;;-146.72;70.42
40994;BME280;26722;43.212;27.932;2023-08-24T06:20:49;54824.75;;;-146.72;70.82
40994;BME280;26722;43.212;27.932;2023-08-24T06:23:19;54812.09;;;-146.72;70.42
40994;BME280;26722;43.212;27.932;2023-08-24T06:25:44;54814.19;;;-146.72;70.57
40994;BME280;26722;43.212;27.932;2023-08-24T06:28:11;54803.63;;;-146.72;70.18
40994;BME280;26722;43.212;27.932;2023-08-24T06:30:38;54822.63;;;-146.72;70.51
40994;BME280;26722;43.212;27.932;2023-08-24T06:33:04;54822.63;;;-146.72;70.66
40994;BME280;26722;43.212;27.932;2023-08-24T06:35:29;54828.97;;;-146.72;71.67
40994;BME280;26722;43.212;27.932;2023-08-24T06:37:55;54816.31;;;-146.72;71.56
40994;BME280;26722;43.212;27.932;2023-08-24T06:40:20;54824.75;;;-146.72;72.67
40994;BME280;26722;43.212;27.932;2023-08-24T06:42:46;54824.75;;;-146.72;73.37
40994;BME280;26722;43.212;27.932;2023-08-24T06:45:11;54828.97;;;-146.72;74.42
40994;BME280;26722;43.212;27.932;2023-08-24T06:47:38;54807.88;;;-146.72;75.03
40994;BME280;26722;43.212;27.932;2023-08-24T06:50:04;54818.41;;;-146.72;75.20
40994;BME280;26722;43.212;27.932;2023-08-24T06:52:30;54820.53;;;-146.72;75.00
40994;BME280;26722;43.212;27.932;2023-08-24T06:54:55;54820.53;;;-146.72;75.14
40994;BME280;26722;43.212;27.932;2023-08-24T06:57:22;54822.63;;;-146.72;74.34
40994;BME280;26722;43.212;27.932;2023-08-24T06:59:47;54816.31;;;-146.72;74.82
40994;BME280;26722;43.212;27.932;2023-08-24T07:02:13;54820.53;;;-146.72;75.60
40994;BME280;26722;43.212;27.932;2023-08-24T07:04:39;54826.88;;;-146.72;75.66
40994;BME280;26722;43.212;27.932;2023-08-24T07:07:06;54826.88;;;-146.72;76.22
40994;BME280;26722;43.212;27.932;2023-08-24T07:09:32;54824.75;;;-146.72;76.08
40994;BME280;26722;43.212;27.932;2023-08-24T07:11:57;54820.53;;;-146.72;75.53
40994;BME280;26722;43.212;27.932;2023-08-24T07:14:23;54820.53;;;-146.72;75.90
40994;BME280;26722;43.212;27.932;2023-08-24T07:16:48;54828.97;;;-146.72;75.64
40994;BME280;26722;43.212;27.932;2023-08-24T07:19:14;54820.53;;;-146.72;74.67
40994;BME280;26722;43.212;27.932;2023-08-24T07:21:39;54824.75;;;-146.72;75.54
40994;BME280;26722;43.212;27.932;2023-08-24T07:24:05;54828.97;;;-146.72;74.99
40994;BME280;26722;43.212;27.932;2023-08-24T07:26:31;54824.75;;;-146.72;75.86
40994;BME280;26722;43.212;27.932;2023-08-24T07:28:56;54824.75;;;-146.72;75.92
40994;BME280;26722;43.212;27.932;2023-08-24T07:31:22;54822.63;;;-146.72;76.21
40994;BME280;26722;43.212;27.932;2023-08-24T07:33:48;54828.97;;;-146.72;76.86
40994;BME280;26722;43.212;27.932;2023-08-24T07:36:14;54824.75;;;-146.72;78.30
40994;BME280;26722;43.212;27.932;2023-08-24T07:38:39;54826.88;;;-146.72;78.92
40994;BME280;26722;43.212;27.932;2023-08-24T07:41:05;54820.53;;;-146.72;79.07
40994;BME280;26722;43.212;27.932;2023-08-24T07:43:32;54820.53;;;-146.72;78.02
40994;BME280;26722;43.212;27.932;2023-08-24T07:45:58;54816.31;;;-146.72;77.67
40994;BME280;26722;43.212;27.932;2023-08-24T07:48:24;54818.41;;;-146.72;77.31
40994;BME280;26722;43.212;27.932;2023-08-24T07:50:50;54816.31;;;-146.72;78.44
40994;BME280;26722;43.212;27.932;2023-08-24T07:53:15;54818.41;;;-146.72;78.80
40994;BME280;26722;43.212;27.932;2023-08-24T07:55:42;54814.19;;;-146.72;78.91
40994;BME280;26722;43.212;27.932;2023-08-24T07:58:07;54824.75;;;-146.72;79.54
40994;BME280;26722;43.212;27.932;2023-08-24T08:00:33;54816.31;;;-146.72;79.15
40994;BME280;26722;43.212;27.932;2023-08-24T08:02:58;54820.53;;;-146.72;78.23
40994;BME280;26722;43.212;27.932;2023-08-24T08:05:24;54818.41;;;-146.72;77.30
40994;BME280;26722;43.212;27.932;2023-08-24T08:07:49;54812.09;;;-146.72;77.78
40994;BME280;26722;43.212;27.932;2023-08-24T08:10:15;54812.09;;;-146.72;77.10
40994;BME280;26722;43.212;27.932;2023-08-24T08:12:42;54818.41;;;-146.72;77.74
40994;BME280;26722;43.212;27.932;2023-08-24T08:15:08;54816.31;;;-146.72;77.03
40994;BME280;26722;43.212;27.932;2023-08-24T08:17:34;54814.19;;;-146.72;77.40
40994;BME280;26722;43.212;27.932;2023-08-24T08:20:00;54812.09;;;-146.72;78.42
40994;BME280;26722;43.212;27.932;2023-08-24T08:22:25;54805.75;;;-146.72;78.49
40994;BME280;26722;43.212;27.932;2023-08-24T08:24:51;54828.97;;;-146.72;77.27
40994;BME280;26722;43.212;27.932;2023-08-24T08:27:19;54814.19;;;-146.72;76.86
40994;BME280;26722;43.212;27.932;2023-08-24T08:29:45;54801.53;;;-146.72;76.06
40994;BME280;26722;43.212;27.932;2023-08-24T08:32:11;54803.63;;;-146.72;74.52
40994;BME280;26722;43.212;27.932;2023-08-24T08:34:37;54803.63;;;-146.72;73.35
40994;BME280;26722;43.212;27.932;2023-08-24T08:37:03;54799.41;;;-146.72;72.66
40994;BME280;26722;43.212;27.932;2023-08-24T08:39:29;54799.41;;;-146.72;73.78
40994;BME280;26722;43.212;27.932;2023-08-24T08:41:55;54807.88;;;-146.72;73.35
40994;BME280;26722;43.212;27.932;2023-08-24T08:44:21;54799.41;;;-146.72;74.26
40994;BME280;26722;43.212;27.932;2023-08-24T08:46:49;54793.09;;;-146.72;74.20
40994;BME280;26722;43.212;27.932;2023-08-24T08:49:15;54795.19;;;-146.72;74.39
40994;BME280;26722;43.212;27.932;2023-08-24T08:51:41;54795.19;;;-146.72;74.64
40994;BME280;26722;43.212;27.932;2023-08-24T08:54:08;54803.63;;;-146.72;73.01
40994;BME280;26722;43.212;27.932;2023-08-24T08:56:33;54799.41;;;-146.72;72.40
40994;BME280;26722;43.212;27.932;2023-08-24T08:58:59;54799.41;;;-146.72;72.65
40994;BME280;26722;43.212;27.932;2023-08-24T09:01:27;54793.09;;;-146.72;73.48
40994;BME280;26722;43.212;27.932;2023-08-24T09:03:54;54797.31;;;-146.72;74.16
40994;BME280;26722;43.212;27.932;2023-08-24T09:06:20;54793.09;;;-146.72;73.43
40994;BME280;26722;43.212;27.932;2023-08-24T09:08:47;54812.09;;;-146.72;73.28
40994;BME280;26722;43.212;27.932;2023-08-24T09:11:14;54790.97;;;-146.72;72.78
40994;BME280;26722;43.212;27.932;2023-08-24T09:13:42;54799.41;;;-146.72;72.15
40994;BME280;26722;43.212;27.932;2023-08-24T09:16:08;54795.19;;;-146.72;72.13
40994;BME280;26722;43.212;27.932;2023-08-24T09:18:39;54790.97;;;-146.72;72.31
40994;BME280;26722;43.212;27.932;2023-08-24T09:21:12;54790.97;;;-146.72;71.81
40994;BME280;26722;43.212;27.932;2023-08-24T09:24:01;54790.97;;;-146.72;72.99
40994;BME280;26722;43.212;27.932;2023-08-24T09:26:37;54807.88;;;-146.72;73.63
40994;BME280;26722;43.212;27.932;2023-08-24T09:29:15;54803.63;;;-146.72;73.01
40994;BME280;26722;43.212;27.932;2023-08-24T09:31:41;54803.63;;;-146.72;73.30
40994;BME280;26722;43.212;27.932;2023-08-24T09:34:12;54807.88;;;-146.72;73.72
40994;BME280;26722;43.212;27.932;2023-08-24T09:36:38;54803.63;;;-146.72;73.33
40994;BME280;26722;43.212;27.932;2023-08-24T09:39:04;54807.88;;;-146.72;72.87
40994;BME280;26722;43.212;27.932;2023-08-24T09:41:50;54812.09;;;-146.72;73.74
40994;BME280;26722;43.212;27.932;2023-08-24T09:44:19;54795.19;;;-146.72;73.42
40994;BME280;26722;43.212;27.932;2023-08-24T09:46:44;54803.63;;;-146.72;72.62
40994;BME280;26722;43.212;27.932;2023-08-24T09:49:11;54797.31;;;-146.72;72.16
40994;BME280;26722;43.212;27.932;2023-08-24T09:51:39;54795.19;;;-146.72;72.70
40994;BME280;26722;43.212;27.932;2023-08-24T09:54:07;54788.88;;;-146.72;72.26
40994;BME280;26722;43.212;27.932;2023-08-24T09:56:36;54795.19;;;-146.72;71.69
40994;BME280;26722;43.212;27.932;2023-08-24T09:59:12;54803.63;;;-146.72;71.98
40994;BME280;26722;43.212;27.932;2023-08-24T10:01:42;54805.75;;;-146.72;71.86
40994;BME280;26722;43.212;27.932;2023-08-24T10:04:09;54799.41;;;-146.72;71.65
40994;BME280;26722;43.212;27.932;2023-08-24T10:06:36;54799.41;;;-146.72;72.00
40994;BME280;26722;43.212;27.932;2023-08-24T10:09:02;54799.41;;;-146.72;71.86
40994;BME280;26722;43.212;27.932;2023-08-24T10:11:34;54790.97;;;-146.72;72.80
40994;BME280;26722;43.212;27.932;2023-08-24T10:14:32;54799.41;;;-146.72;73.67
40994;BME280;26722;43.212;27.932;2023-08-24T10:17:01;54797.31;;;-146.72;73.79
40994;BME280;26722;43.212;27.932;2023-08-24T10:19:27;54805.75;;;-146.72;74.29
40994;BME280;26722;43.212;27.932;2023-08-24T10:21:53;54816.31;;;-146.72;74.69
40994;BME280;26722;43.212;27.932;2023-08-24T10:24:22;54816.31;;;-146.72;74.92
40994;BME280;26722;43.212;27.932;2023-08-24T10:26:48;54807.88;;;-146.72;73.56
40994;BME280;26722;43.212;27.932;2023-08-24T10:29:16;54807.88;;;-146.72;72.85
40994;BME280;26722;43.212;27.932;2023-08-24T10:31:42;54812.09;;;-146.72;73.10
40994;BME280;26722;43.212;27.932;2023-08-24T10:34:09;54801.53;;;-146.72;73.37
40994;BME280;26722;43.212;27.932;2023-08-24T10:36:38;54820.53;;;-146.72;74.52
40994;BME280;26722;43.212;27.932;2023-08-24T10:39:05;54820.53;;;-146.72;73.22
40994;BME280;26722;43.212;27.932;2023-08-24T10:41:51;54822.63;;;-146.72;72.33
40994;BME280;26722;43.212;27.932;2023-08-24T10:44:37;54812.09;;;-146.72;72.75
40994;BME280;26722;43.212;27.932;2023-08-24T10:49:39;54824.75;;;-146.72;74.23
40994;BME280;26722;43.212;27.932;2023-08-24T10:52:18;54801.53;;;-146.72;74.09
40994;BME280;26722;43.212;27.932;2023-08-24T10:54:48;54809.97;;;-146.72;73.69
40994;BME280;26722;43.212;27.932;2023-08-24T11:00:07;54807.88;;;-146.72;72.04
40994;BME280;26722;43.212;27.932;2023-08-24T11:02:45;54818.41;;;-146.72;71.39
40994;BME280;26722;43.212;27.932;2023-08-24T11:05:28;54805.75;;;-146.72;71.36
40994;BME280;26722;43.212;27.932;2023-08-24T11:08:04;54812.09;;;-146.72;71.35
40994;BME280;26722;43.212;27.932;2023-08-24T11:15:44;54803.63;;;-146.72;70.49
40994;BME280;26722;43.212;27.932;2023-08-24T11:18:28;54790.97;;;-146.72;70.20
40994;BME280;26722;43.212;27.932;2023-08-24T11:20:54;54799.41;;;-146.72;71.16
40994;BME280;26722;43.212;27.932;2023-08-24T11:23:22;54801.53;;;-146.72;71.33
40994;BME280;26722;43.212;27.932;2023-08-24T11:25:49;54812.09;;;-146.72;69.63
40994;BME280;26722;43.212;27.932;2023-08-24T11:28:19;54805.75;;;-146.72;70.54
40994;BME280;26722;43.212;27.932;2023-08-24T11:30:45;54801.53;;;-146.72;71.63
40994;BME280;26722;43.212;27.932;2023-08-24T11:33:11;54809.97;;;-146.72;71.74
40994;BME280;26722;43.212;27.932;2023-08-24T11:35:42;54812.09;;;-146.72;71.56
40994;BME280;26722;43.212;27.932;2023-08-24T11:38:08;54814.19;;;-146.72;72.07
40994;BME280;26722;43.212;27.932;2023-08-24T11:40:34;54824.75;;;-146.72;72.12
40994;BME280;26722;43.212;27.932;2023-08-24T11:42:59;54812.09;;;-146.72;72.89
40994;BME280;26722;43.212;27.932;2023-08-24T11:45:30;54809.97;;;-146.72;72.58
40994;BME280;26722;43.212;27.932;2023-08-24T11:47:58;54812.09;;;-146.72;72.26
40994;BME280;26722;43.212;27.932;2023-08-24T11:50:23;54803.63;;;-146.72;71.82
40994;BME280;26722;43.212;27.932;2023-08-24T11:52:49;54805.75;;;-146.72;72.25
40994;BME280;26722;43.212;27.932;2023-08-24T11:55:14;54807.88;;;-146.72;72.24
40994;BME280;26722;43.212;27.932;2023-08-24T11:57:41;54809.97;;;-146.72;72.97
40994;BME280;26722;43.212;27.932;2023-08-24T12:00:07;54818.41;;;-146.72;72.73
40994;BME280;26722;43.212;27.932;2023-08-24T12:02:34;54820.53;;;-146.72;73.71
40994;BME280;26722;43.212;27.932;2023-08-24T12:05:01;54824.75;;;-146.72;74.25
40994;BME280;26722;43.212;27.932;2023-08-24T12:07:27;54818.41;;;-146.72;75.54
40994;BME280;26722;43.212;27.932;2023-08-24T12:09:53;54824.75;;;-146.72;75.98
40994;BME280;26722;43.212;27.932;2023-08-24T12:12:19;54809.97;;;-146.72;75.61
40994;BME280;26722;43.212;27.932;2023-08-24T12:14:49;54826.88;;;-146.72;75.53
40994;BME280;26722;43.212;27.932;2023-08-24T12:17:16;54822.63;;;-146.72;76.01
40994;BME280;26722;43.212;27.932;2023-08-24T12:19:58;54818.41;;;-146.72;75.31
40994;BME280;26722;43.212;27.932;2023-08-24T12:22:25;54824.75;;;-146.72;75.63
40994;BME280;26722;43.212;27.932;2023-08-24T12:24:50;54818.41;;;-146.72;75.49
40994;BME280;26722;43.212;27.932;2023-08-24T12:27:23;54812.09;;;-146.72;74.81
40994;BME280;26722;43.212;27.932;2023-08-24T12:29:49;54818.41;;;-146.72;74.00
40994;BME280;26722;43.212;27.932;2023-08-24T12:32:16;54816.31;;;-146.72;74.63
40994;BME280;26722;43.212;27.932;2023-08-24T12:34:45;54822.63;;;-146.72;75.59
40994;BME280;26722;43.212;27.932;2023-08-24T12:37:11;54816.31;;;-146.72;75.77
40994;BME280;26722;43.212;27.932;2023-08-24T12:39:38;54824.75;;;-146.72;76.51
40994;BME280;26722;43.212;27.932;2023-08-24T12:42:04;54822.63;;;-146.72;76.02
40994;BME280;26722;43.212;27.932;2023-08-24T12:44:30;54818.41;;;-146.72;76.27
40994;BME280;26722;43.212;27.932;2023-08-24T12:46:55;54824.75;;;-146.72;75.89
40994;BME280;26722;43.212;27.932;2023-08-24T12:49:21;54820.53;;;-146.72;75.88
40994;BME280;26722;43.212;27.932;2023-08-24T12:51:47;54820.53;;;-146.72;75.92